Preview of NWS' New Version of Forecast
This preview is not operational and should not be used for support decisions.

Terminal Aerodrome Forecast (TAF)

Issued by National Weather Service (NWS)

                            
336 
FTUS42 KKEY 271732
TAFMTH
TAF
KMTH 271732Z 2718/2818 18015G25KT P6SM VCSH SCT018 BKN100
      TEMPO 2718/2722 20020G30KT 2SM +TSRA BKN015CB OVC035
     FM280000 19020G29KT P6SM -RA VCTS SCT018CB BKN100
      TEMPO 2800/2804 09022G32KT 2SM +TSRA BKN020CB OVC035
     FM280400 18016G25KT P6SM -SHRA VCTS SCT020CB
      TEMPO 2804/2808 09022G32KT 2SM +TSRA BKN020CB OVC035=